NCAR-RAP Real-Time Weather Data

Output produced by METARs form (23 January 2018  15:52 UTC)
found at http://weather.rap.ucar.edu/surface/
 
RJFO 231300Z 23011KT 9999 FEW030 SCT050 01/M07 Q1019
RJFO 231200Z 24011KT 9999 FEW030 SCT050 01/M07 Q1018
RJFO 231100Z 24004KT 9999 FEW030 BKN050 02/M06 Q1018
RJFO 231000Z 30004KT 270V330 9999 FEW020 SCT/// 03/M05 Q1018
RJFO 230900Z 28008KT 250V330 9999 FEW015 SCT040 04/M06 Q1017
RJFO 230800Z 28011KT 250V320 9999 FEW009 SCT025 05/M07 Q1017
RJFO 230700Z 29015KT 240V330 9999 FEW035 06/M07 Q1016
RJFO 230600Z 28018G29KT 9999 FEW035 SCT/// 07/M03 Q1016
RJFO 230504Z 28016G26KT 250V320 9999 FEW030 SCT/// 07/M02 Q1016 RMK 2CU030 A3001
RJFO 230500Z 28017KT 240V320 9999 FEW030 SCT/// 07/M01 Q1016
RJFO 230402Z 29016G29KT 250V320 9999 -SHRA FEW015 SCT020 BKN030 06/01 Q1016 RMK 1CU015 3CU020 5CU030 A3002
RJFO 230400Z 29016KT 9999 -SHRA FEW015 SCT020 BKN030 06/01 Q1016
RJFO 230300Z 30013G23KT 260V330 9999 -SHRA FEW010 SCT020 BKN030 06/02 Q1017
RJFO 230211Z 29016G26KT 260V320 9999 FEW030 BKN040 08/M01 Q1017 RMK 1CU030 5CU040 A3003
RJFO 230200Z 29016KT 9999 FEW035 SCT040 09/M01 Q1017
RJFO 230114Z 29015G26KT 250V310 9999 FEW035 09/M00 Q1016 RMK 2CU035 A3002
RJFO 230100Z 29018KT 250V320 9999 FEW035 08/M01 Q1016
RJFO 230000Z 23004KT 200V280 9999 FEW030 08/01 Q1016
RJFO 222300Z VRB02KT 8000 FEW030 05/03 Q1015
RJFO 222200Z 24003KT 7000 FEW035 05/03 Q1014
RJFO 221300Z 29006KT 9999 FEW020 04/02 Q1014
RJFO 221200Z 28007KT 9999 FEW020 03/02 Q1014
RJFO 221100Z 26007KT 9999 FEW015 SCT/// 03/02 Q1014
RJFO 221000Z 26007KT 9999 FEW015 SCT/// 04/02 Q1014
RJFO 220900Z 27007KT 9999 FEW006 SCT010 BKN/// 03/02 Q1014
RJFO 220800Z 27004KT 240V300 9999 FEW006 SCT009 BKN015 04/03 Q1013
RJFO 220700Z 27005KT 250V310 9999 FEW006 SCT060 BKN/// 05/03 Q1012
RJFO 220600Z 31005KT 230V340 9999 FEW005 SCT040 BKN050 05/03 Q1012
RJFO 220500Z 34010KT 9999 -SHRA FEW006 SCT020 BKN030 04/03 Q1012
RJFO 220400Z 32009KT 8000 -SHRASN FEW006 BKN010 BKN015 02/02 Q1012
RJFO 220332Z 32007KT 9999 -SHRA FEW007 SCT010 BKN015 03/02 Q1012 RMK 1ST007 4ST010 6CU015 A2991
RJFO 220300Z 32006KT 5000 SHRA BR FEW007 SCT010 BKN015 03/02 Q1013
RJFO 220242Z 33007KT 8000 -SHRA FEW006 SCT010 BKN020 03/03 Q1014 RMK 1ST006 4ST010 7CU020 A2995
RJFO 220226Z 33007KT 4000 -SHRA BR FEW006 SCT010 BKN020 04/03 Q1014 RMK 1ST006 4ST010 7CU020 A2996
RJFO 220200Z 36010KT 5000 -SHRA BR FEW008 SCT015 BKN020 05/03 Q1014
RJFO 220147Z 36010KT 5000 -SHRA BR FEW008 SCT015 BKN020 04/03 Q1015 RMK 1ST008 3CU015 7CU020 A2998
RJFO 220127Z 36010KT 5000 SHRA BR FEW008 SCT010 BKN020 04/03 Q1015 RMK 1ST008 3ST010 7CU020 A2999
RJFO 220109Z 36015KT 5000 -SHRA BR FEW006 SCT010 BKN020 05/03 Q1015 RMK 1ST006 3ST010 7CU020 A3000
RJFO 220100Z 36013KT 4000 SHRA BR FEW006 SCT010 BKN020 05/04 Q1015
RJFO 220046Z 36011KT 4000 SHRA BR FEW006 SCT010 BKN020 05/04 Q1016 RMK 1ST006 4ST010 7CU020 A3000
RJFO 220008Z 34009KT 3000 SHRA BR FEW008 BKN015 BKN025 05/05 Q1015 RMK 1ST008 5CU015 7CU025 A3000
RJFO 220000Z 34009KT 3000 -SHRA BR FEW008 BKN015 BKN025 06/05 Q1015
RJFO 212300Z 33005KT 260V010 3000 -SHRA BR FEW020 BKN025 BKN035 06/05 Q1015
RJFO 212234Z 33006KT 4000 -SHRA BR FEW020 SCT025 BKN035 06/05 Q1014 RMK 1CU020 4CU025 7CU035 A2997
RJFO 212200Z 34007KT 7000 -SHRA FEW025 BKN035 BKN045 06/05 Q1014
RJFO 211300Z 26003KT 9999 FEW040 SCT050 BKN/// 05/01 Q1019
RJFO 211200Z 26004KT CAVOK 04/00 Q1020
RJFO 211100Z 26003KT 210V290 CAVOK 06/01 Q1020
RJFO 211000Z 27003KT CAVOK 06/00 Q1020
RJFO 210900Z 31003KT 9999 FEW040 BKN/// 08/00 Q1020
RJFO 210800Z 33004KT 9999 FEW040 BKN/// 10/M01 Q1019
RJFO 210700Z 35007KT 9999 FEW045 BKN/// 11/M00 Q1019
RJFO 210600Z 02012KT 9000 FEW035 SCT045 BKN/// 12/M00 Q1019
RJFO 210500Z 36012KT 9999 FEW030 BKN045 12/02 Q1019
RJFO 210400Z 36012KT 9999 FEW030 BKN040 11/01 Q1020